sensor_id;sensor_type;location;lat;lon;timestamp;pressure;altitude;pressure_sealevel;temperature;humidity
11184;BME280;5648;43.628;22.684;2022-08-19T00:01:31;94964.78;;;24.94;58.16
11184;BME280;5648;43.628;22.684;2022-08-19T00:04:02;94949.34;;;24.81;59.06
11184;BME280;5648;43.628;22.684;2022-08-19T00:06:29;94946.34;;;24.82;59.10
11184;BME280;5648;43.628;22.684;2022-08-19T00:08:56;94946.94;;;24.93;58.27
11184;BME280;5648;43.628;22.684;2022-08-19T00:11:22;94948.72;;;24.98;58.06
11184;BME280;5648;43.628;22.684;2022-08-19T00:13:47;94948.94;;;24.87;59.39
11184;BME280;5648;43.628;22.684;2022-08-19T00:16:16;94951.63;;;24.87;60.32
11184;BME280;5648;43.628;22.684;2022-08-19T00:18:44;94944.56;;;24.78;59.74
11184;BME280;5648;43.628;22.684;2022-08-19T00:21:09;94951.34;;;24.75;60.71
11184;BME280;5648;43.628;22.684;2022-08-19T00:23:35;94948.13;;;24.73;60.69
11184;BME280;5648;43.628;22.684;2022-08-19T00:26:03;94948.13;;;24.73;59.83
11184;BME280;5648;43.628;22.684;2022-08-19T00:28:29;94937.72;;;24.67;60.66
11184;BME280;5648;43.628;22.684;2022-08-19T00:30:55;94948.53;;;24.67;60.73
11184;BME280;5648;43.628;22.684;2022-08-19T00:33:21;94943.03;;;24.72;60.25
11184;BME280;5648;43.628;22.684;2022-08-19T00:35:47;94944.56;;;24.78;61.50
11184;BME280;5648;43.628;22.684;2022-08-19T00:38:13;94938.03;;;24.79;62.02
11184;BME280;5648;43.628;22.684;2022-08-19T00:40:43;94939.03;;;24.83;61.17
11184;BME280;5648;43.628;22.684;2022-08-19T00:43:12;94944.25;;;24.79;62.69
11184;BME280;5648;43.628;22.684;2022-08-19T00:45:39;94945.63;;;24.77;61.92
11184;BME280;5648;43.628;22.684;2022-08-19T00:48:07;94938.72;;;24.71;62.50
11184;BME280;5648;43.628;22.684;2022-08-19T00:50:34;94937.94;;;24.70;61.57
11184;BME280;5648;43.628;22.684;2022-08-19T00:53:00;94931.84;;;24.65;62.52
11184;BME280;5648;43.628;22.684;2022-08-19T00:55:30;94929.69;;;24.62;62.13
11184;BME280;5648;43.628;22.684;2022-08-19T00:58:07;94938.34;;;24.64;63.44
11184;BME280;5648;43.628;22.684;2022-08-19T01:00:34;94942.81;;;24.54;64.15
11184;BME280;5648;43.628;22.684;2022-08-19T01:03:06;94947.91;;;24.42;65.78
11184;BME280;5648;43.628;22.684;2022-08-19T01:05:33;94937.09;;;24.42;64.03
11184;BME280;5648;43.628;22.684;2022-08-19T01:08:02;94950.44;;;24.52;63.59
11184;BME280;5648;43.628;22.684;2022-08-19T01:10:31;94944.13;;;24.57;64.87
11184;BME280;5648;43.628;22.684;2022-08-19T01:12:58;94943.44;;;24.51;64.52
11184;BME280;5648;43.628;22.684;2022-08-19T01:15:33;94946.03;;;24.56;63.58
11184;BME280;5648;43.628;22.684;2022-08-19T01:18:08;94936.50;;;24.45;64.93
11184;BME280;5648;43.628;22.684;2022-08-19T01:20:34;94937.28;;;24.32;65.95
11184;BME280;5648;43.628;22.684;2022-08-19T01:22:59;94931.06;;;24.32;65.24
11184;BME280;5648;43.628;22.684;2022-08-19T01:25:29;94936.19;;;24.33;65.36
11184;BME280;5648;43.628;22.684;2022-08-19T01:27:56;94924.28;;;24.34;64.16
11184;BME280;5648;43.628;22.684;2022-08-19T01:30:27;94931.16;;;24.26;65.15
11184;BME280;5648;43.628;22.684;2022-08-19T01:32:54;94925.75;;;24.26;65.53
11184;BME280;5648;43.628;22.684;2022-08-19T01:35:20;94934.34;;;24.28;65.56
11184;BME280;5648;43.628;22.684;2022-08-19T01:37:52;94926.88;;;24.07;66.62
11184;BME280;5648;43.628;22.684;2022-08-19T01:40:20;94926.84;;;24.25;66.08
11184;BME280;5648;43.628;22.684;2022-08-19T01:42:48;94934.00;;;24.35;65.26
11184;BME280;5648;43.628;22.684;2022-08-19T01:45:14;94932.91;;;24.36;66.15
11184;BME280;5648;43.628;22.684;2022-08-19T01:47:39;94935.50;;;24.41;64.63
11184;BME280;5648;43.628;22.684;2022-08-19T01:50:07;94930.69;;;24.38;65.98
11184;BME280;5648;43.628;22.684;2022-08-19T01:52:38;94936.19;;;24.33;66.71
11184;BME280;5648;43.628;22.684;2022-08-19T01:55:06;94934.09;;;24.30;66.90
11184;BME280;5648;43.628;22.684;2022-08-19T01:57:32;94924.81;;;24.36;65.75
11184;BME280;5648;43.628;22.684;2022-08-19T01:59:58;94926.09;;;24.39;66.13
11184;BME280;5648;43.628;22.684;2022-08-19T02:02:25;94926.47;;;24.32;65.80
11184;BME280;5648;43.628;22.684;2022-08-19T02:04:50;94934.28;;;24.34;66.33
11184;BME280;5648;43.628;22.684;2022-08-19T02:07:19;94943.25;;;24.29;66.37
11184;BME280;5648;43.628;22.684;2022-08-19T02:09:46;94943.84;;;24.26;67.61
11184;BME280;5648;43.628;22.684;2022-08-19T02:12:12;94941.59;;;24.33;66.20
11184;BME280;5648;43.628;22.684;2022-08-19T02:14:37;94931.75;;;24.23;67.96
11184;BME280;5648;43.628;22.684;2022-08-19T02:17:03;94941.28;;;24.35;67.39
11184;BME280;5648;43.628;22.684;2022-08-19T02:19:29;94942.19;;;24.30;67.18
11184;BME280;5648;43.628;22.684;2022-08-19T02:21:57;94943.06;;;24.25;66.99
11184;BME280;5648;43.628;22.684;2022-08-19T02:24:22;94936.25;;;24.28;66.58
11184;BME280;5648;43.628;22.684;2022-08-19T02:26:48;94941.28;;;24.35;66.03
11184;BME280;5648;43.628;22.684;2022-08-19T02:29:13;94932.97;;;24.31;66.53
11184;BME280;5648;43.628;22.684;2022-08-19T02:31:39;94936.72;;;24.35;66.39
11184;BME280;5648;43.628;22.684;2022-08-19T02:34:04;94935.38;;;24.33;66.86
11184;BME280;5648;43.628;22.684;2022-08-19T02:36:30;94924.94;;;24.26;66.59
11184;BME280;5648;43.628;22.684;2022-08-19T02:38:55;94925.97;;;24.30;67.05
11184;BME280;5648;43.628;22.684;2022-08-19T02:41:27;94931.44;;;24.25;67.80
11184;BME280;5648;43.628;22.684;2022-08-19T02:43:57;94926.88;;;24.07;68.60
11184;BME280;5648;43.628;22.684;2022-08-19T02:46:28;94924.03;;;24.17;67.97
11184;BME280;5648;43.628;22.684;2022-08-19T02:49:00;94933.13;;;24.21;67.91
11184;BME280;5648;43.628;22.684;2022-08-19T02:51:32;94932.56;;;24.24;67.96
11184;BME280;5648;43.628;22.684;2022-08-19T02:53:59;94929.41;;;24.17;68.07
11184;BME280;5648;43.628;22.684;2022-08-19T02:56:25;94931.03;;;24.18;67.38
11184;BME280;5648;43.628;22.684;2022-08-19T02:58:53;94921.81;;;24.19;67.30
11184;BME280;5648;43.628;22.684;2022-08-19T03:01:25;94930.41;;;24.21;67.00
11184;BME280;5648;43.628;22.684;2022-08-19T03:03:52;94922.25;;;24.26;67.03
11184;BME280;5648;43.628;22.684;2022-08-19T03:06:19;94923.72;;;24.18;67.87
11184;BME280;5648;43.628;22.684;2022-08-19T03:08:46;94927.22;;;24.19;68.54
11184;BME280;5648;43.628;22.684;2022-08-19T03:11:25;94922.53;;;24.11;68.33
11184;BME280;5648;43.628;22.684;2022-08-19T03:13:51;94923.19;;;24.03;68.82
11184;BME280;5648;43.628;22.684;2022-08-19T03:16:19;94945.28;;;24.05;69.97
11184;BME280;5648;43.628;22.684;2022-08-19T03:18:45;94937.19;;;24.05;70.54
11184;BME280;5648;43.628;22.684;2022-08-19T03:21:16;94934.19;;;24.06;70.45
11184;BME280;5648;43.628;22.684;2022-08-19T03:23:42;94942.38;;;24.01;71.15
11184;BME280;5648;43.628;22.684;2022-08-19T03:26:07;94943.78;;;23.98;72.23
11184;BME280;5648;43.628;22.684;2022-08-19T03:28:33;94939.53;;;23.92;72.10
11184;BME280;5648;43.628;22.684;2022-08-19T03:31:04;94942.50;;;23.77;72.79
11184;BME280;5648;43.628;22.684;2022-08-19T03:33:33;94943.44;;;23.86;72.91
11184;BME280;5648;43.628;22.684;2022-08-19T03:36:10;94940.75;;;23.86;74.68
11184;BME280;5648;43.628;22.684;2022-08-19T03:38:42;94954.84;;;23.64;76.41
11184;BME280;5648;43.628;22.684;2022-08-19T03:41:16;94960.88;;;23.56;77.89
11184;BME280;5648;43.628;22.684;2022-08-19T03:43:43;94964.16;;;23.53;79.76
11184;BME280;5648;43.628;22.684;2022-08-19T03:46:18;94964.31;;;23.62;76.99
11184;BME280;5648;43.628;22.684;2022-08-19T03:48:46;94970.09;;;23.74;75.95
11184;BME280;5648;43.628;22.684;2022-08-19T03:51:21;94970.47;;;23.67;78.39
11184;BME280;5648;43.628;22.684;2022-08-19T03:53:47;94974.47;;;23.51;78.95
11184;BME280;5648;43.628;22.684;2022-08-19T03:56:14;94983.09;;;23.48;82.72
11184;BME280;5648;43.628;22.684;2022-08-19T03:58:40;94980.50;;;23.43;83.66
11184;BME280;5648;43.628;22.684;2022-08-19T04:01:11;94988.66;;;23.38;82.88
11184;BME280;5648;43.628;22.684;2022-08-19T04:03:38;94989.59;;;23.28;87.09
11184;BME280;5648;43.628;22.684;2022-08-19T04:06:15;94986.03;;;23.33;83.42
11184;BME280;5648;43.628;22.684;2022-08-19T04:08:42;94992.72;;;23.35;82.93
11184;BME280;5648;43.628;22.684;2022-08-19T04:11:10;94990.41;;;23.29;81.50
11184;BME280;5648;43.628;22.684;2022-08-19T04:13:36;94986.81;;;23.33;81.91
11184;BME280;5648;43.628;22.684;2022-08-19T04:16:05;94994.63;;;23.35;81.24
11184;BME280;5648;43.628;22.684;2022-08-19T04:18:32;94995.38;;;23.40;80.39
11184;BME280;5648;43.628;22.684;2022-08-19T04:20:58;95001.78;;;23.45;81.73
11184;BME280;5648;43.628;22.684;2022-08-19T04:23:24;94995.66;;;23.39;84.92
11184;BME280;5648;43.628;22.684;2022-08-19T04:25:49;94998.38;;;23.39;83.56
11184;BME280;5648;43.628;22.684;2022-08-19T04:28:15;95002.50;;;23.31;84.23
11184;BME280;5648;43.628;22.684;2022-08-19T04:30:44;94998.19;;;23.30;86.33
11184;BME280;5648;43.628;22.684;2022-08-19T04:33:11;95001.59;;;23.17;88.68
11184;BME280;5648;43.628;22.684;2022-08-19T04:35:40;95003.06;;;23.09;90.55
11184;BME280;5648;43.628;22.684;2022-08-19T04:38:07;95007.19;;;23.02;92.02
11184;BME280;5648;43.628;22.684;2022-08-19T04:40:34;95008.09;;;22.92;94.38
11184;BME280;5648;43.628;22.684;2022-08-19T04:43:18;95010.72;;;22.73;98.15
11184;BME280;5648;43.628;22.684;2022-08-19T04:45:45;95007.72;;;22.75;100.00
11184;BME280;5648;43.628;22.684;2022-08-19T04:48:11;95017.47;;;22.71;99.81
11184;BME280;5648;43.628;22.684;2022-08-19T04:50:40;95003.34;;;22.55;100.00
11184;BME280;5648;43.628;22.684;2022-08-19T04:53:07;95004.69;;;22.58;100.00
11184;BME280;5648;43.628;22.684;2022-08-19T04:55:32;95014.41;;;22.54;100.00
11184;BME280;5648;43.628;22.684;2022-08-19T04:57:58;95004.38;;;22.59;100.00
11184;BME280;5648;43.628;22.684;2022-08-19T05:00:25;95001.63;;;22.64;100.00
11184;BME280;5648;43.628;22.684;2022-08-19T05:02:50;95012.97;;;22.61;100.00
11184;BME280;5648;43.628;22.684;2022-08-19T05:05:16;95004.88;;;22.66;100.00
11184;BME280;5648;43.628;22.684;2022-08-19T05:07:42;95008.06;;;22.68;100.00
11184;BME280;5648;43.628;22.684;2022-08-19T05:10:07;95007.56;;;22.66;100.00
11184;BME280;5648;43.628;22.684;2022-08-19T05:12:33;95006.69;;;22.71;100.00
11184;BME280;5648;43.628;22.684;2022-08-19T05:14:59;95013.69;;;22.72;100.00
11184;BME280;5648;43.628;22.684;2022-08-19T05:17:26;95011.78;;;22.72;100.00
11184;BME280;5648;43.628;22.684;2022-08-19T05:19:52;95011.22;;;22.75;100.00
11184;BME280;5648;43.628;22.684;2022-08-19T05:22:36;95009.25;;;22.86;100.00
11184;BME280;5648;43.628;22.684;2022-08-19T05:25:05;95000.25;;;22.96;100.00
11184;BME280;5648;43.628;22.684;2022-08-19T05:27:31;95000.94;;;22.77;100.00
11184;BME280;5648;43.628;22.684;2022-08-19T05:29:57;94997.50;;;22.48;100.00
11184;BME280;5648;43.628;22.684;2022-08-19T05:32:23;94998.38;;;22.67;100.00
11184;BME280;5648;43.628;22.684;2022-08-19T05:34:48;94994.56;;;22.44;100.00
11184;BME280;5648;43.628;22.684;2022-08-19T05:37:14;95001.69;;;22.59;100.00
11184;BME280;5648;43.628;22.684;2022-08-19T05:39:40;95004.72;;;22.76;100.00
11184;BME280;5648;43.628;22.684;2022-08-19T05:42:08;95004.72;;;22.76;100.00
11184;BME280;5648;43.628;22.684;2022-08-19T05:44:37;95003.72;;;22.72;100.00
11184;BME280;5648;43.628;22.684;2022-08-19T05:47:06;95011.94;;;22.86;100.00
11184;BME280;5648;43.628;22.684;2022-08-19T05:49:35;95006.97;;;22.98;100.00
11184;BME280;5648;43.628;22.684;2022-08-19T05:52:06;95007.50;;;23.19;100.00
11184;BME280;5648;43.628;22.684;2022-08-19T05:54:33;95005.91;;;23.18;100.00
11184;BME280;5648;43.628;22.684;2022-08-19T05:57:00;95011.69;;;23.06;100.00
11184;BME280;5648;43.628;22.684;2022-08-19T05:59:26;95010.38;;;23.28;100.00
11184;BME280;5648;43.628;22.684;2022-08-19T06:01:52;95004.06;;;23.37;100.00
11184;BME280;5648;43.628;22.684;2022-08-19T06:04:21;95014.69;;;23.48;100.00
11184;BME280;5648;43.628;22.684;2022-08-19T06:06:51;95016.88;;;23.46;100.00
11184;BME280;5648;43.628;22.684;2022-08-19T06:09:17;95026.41;;;23.62;100.00
11184;BME280;5648;43.628;22.684;2022-08-19T06:11:46;95019.69;;;23.78;100.00
11184;BME280;5648;43.628;22.684;2022-08-19T06:14:15;95005.56;;;23.67;100.00
11184;BME280;5648;43.628;22.684;2022-08-19T06:16:43;95021.16;;;23.28;100.00
11184;BME280;5648;43.628;22.684;2022-08-19T06:19:12;95014.66;;;23.10;100.00
11184;BME280;5648;43.628;22.684;2022-08-19T06:21:39;95017.59;;;23.32;100.00
11184;BME280;5648;43.628;22.684;2022-08-19T06:24:07;95012.06;;;23.43;100.00
11184;BME280;5648;43.628;22.684;2022-08-19T06:26:34;95017.97;;;23.45;100.00
11184;BME280;5648;43.628;22.684;2022-08-19T06:29:00;95022.94;;;23.56;100.00
11184;BME280;5648;43.628;22.684;2022-08-19T06:31:27;95028.00;;;23.63;100.00
11184;BME280;5648;43.628;22.684;2022-08-19T06:33:53;95033.53;;;23.53;100.00
11184;BME280;5648;43.628;22.684;2022-08-19T06:38:49;95034.28;;;23.77;100.00
11184;BME280;5648;43.628;22.684;2022-08-19T06:41:15;95039.69;;;23.96;100.00
11184;BME280;5648;43.628;22.684;2022-08-19T06:43:40;95037.06;;;24.10;100.00
11184;BME280;5648;43.628;22.684;2022-08-19T06:46:13;95045.22;;;24.05;100.00
11184;BME280;5648;43.628;22.684;2022-08-19T06:48:39;95036.75;;;24.30;100.00
11184;BME280;5648;43.628;22.684;2022-08-19T06:51:04;95048.13;;;24.27;100.00
11184;BME280;5648;43.628;22.684;2022-08-19T06:53:31;95044.72;;;24.21;100.00
11184;BME280;5648;43.628;22.684;2022-08-19T06:55:57;95049.28;;;24.21;100.00
11184;BME280;5648;43.628;22.684;2022-08-19T06:58:30;95045.03;;;24.52;100.00
11184;BME280;5648;43.628;22.684;2022-08-19T07:01:00;95041.94;;;24.59;100.00
11184;BME280;5648;43.628;22.684;2022-08-19T07:03:29;95047.78;;;24.80;100.00
11184;BME280;5648;43.628;22.684;2022-08-19T07:05:56;95049.78;;;24.88;100.00
11184;BME280;5648;43.628;22.684;2022-08-19T07:08:21;95050.53;;;24.61;100.00
11184;BME280;5648;43.628;22.684;2022-08-19T07:10:47;95046.75;;;24.76;100.00
11184;BME280;5648;43.628;22.684;2022-08-19T07:13:14;95040.56;;;24.75;100.00
11184;BME280;5648;43.628;22.684;2022-08-19T07:15:40;95050.25;;;24.63;100.00
11184;BME280;5648;43.628;22.684;2022-08-19T07:18:05;95043.19;;;24.80;100.00
11184;BME280;5648;43.628;22.684;2022-08-19T07:20:31;95038.88;;;24.93;100.00
11184;BME280;5648;43.628;22.684;2022-08-19T07:22:58;95045.16;;;25.07;100.00
11184;BME280;5648;43.628;22.684;2022-08-19T07:25:23;95039.94;;;25.11;100.00
11184;BME280;5648;43.628;22.684;2022-08-19T07:27:49;95047.75;;;25.26;100.00
11184;BME280;5648;43.628;22.684;2022-08-19T07:30:15;95046.34;;;25.29;100.00
11184;BME280;5648;43.628;22.684;2022-08-19T07:32:41;95047.13;;;25.29;99.51
11184;BME280;5648;43.628;22.684;2022-08-19T07:35:08;95060.47;;;25.26;95.99
11184;BME280;5648;43.628;22.684;2022-08-19T07:37:34;95048.22;;;25.56;100.00
11184;BME280;5648;43.628;22.684;2022-08-19T07:40:05;95046.41;;;25.65;100.00
11184;BME280;5648;43.628;22.684;2022-08-19T07:42:31;95052.44;;;25.62;100.00
11184;BME280;5648;43.628;22.684;2022-08-19T07:44:57;95047.59;;;25.72;100.00
11184;BME280;5648;43.628;22.684;2022-08-19T07:47:23;95039.41;;;26.00;100.00
11184;BME280;5648;43.628;22.684;2022-08-19T07:49:49;95037.75;;;26.13;100.00
11184;BME280;5648;43.628;22.684;2022-08-19T07:52:14;95046.75;;;26.22;96.38
11184;BME280;5648;43.628;22.684;2022-08-19T07:54:41;95039.09;;;26.38;96.00
11184;BME280;5648;43.628;22.684;2022-08-19T07:57:07;95037.25;;;26.47;97.54
11184;BME280;5648;43.628;22.684;2022-08-19T07:59:33;95045.09;;;26.57;97.36
11184;BME280;5648;43.628;22.684;2022-08-19T08:01:59;95050.38;;;26.84;93.07
11184;BME280;5648;43.628;22.684;2022-08-19T08:04:26;95051.22;;;26.93;91.68
11184;BME280;5648;43.628;22.684;2022-08-19T08:07:10;95037.19;;;27.00;88.92
11184;BME280;5648;43.628;22.684;2022-08-19T08:09:55;95053.19;;;27.02;93.27
11184;BME280;5648;43.628;22.684;2022-08-19T08:12:25;95043.75;;;26.99;92.36
11184;BME280;5648;43.628;22.684;2022-08-19T08:14:55;95056.81;;;26.97;95.08
11184;BME280;5648;43.628;22.684;2022-08-19T08:17:24;95053.41;;;27.14;95.23
11184;BME280;5648;43.628;22.684;2022-08-19T08:19:50;95039.72;;;27.19;95.84
11184;BME280;5648;43.628;22.684;2022-08-19T08:22:18;95036.69;;;27.29;87.71
11184;BME280;5648;43.628;22.684;2022-08-19T08:25:15;95036.25;;;27.44;89.21
11184;BME280;5648;43.628;22.684;2022-08-19T08:27:43;95034.06;;;27.55;87.31
11184;BME280;5648;43.628;22.684;2022-08-19T08:30:15;95046.72;;;27.60;88.87
11184;BME280;5648;43.628;22.684;2022-08-19T08:32:41;95037.94;;;27.71;85.79
11184;BME280;5648;43.628;22.684;2022-08-19T08:35:11;95038.94;;;27.75;82.88
11184;BME280;5648;43.628;22.684;2022-08-19T08:37:37;95044.69;;;27.83;78.16
11184;BME280;5648;43.628;22.684;2022-08-19T08:40:14;95044.84;;;27.86;79.88
11184;BME280;5648;43.628;22.684;2022-08-19T08:42:51;95043.91;;;28.08;75.68
11184;BME280;5648;43.628;22.684;2022-08-19T08:45:19;95044.38;;;28.10;75.62
11184;BME280;5648;43.628;22.684;2022-08-19T08:47:49;95047.09;;;28.19;72.77
11184;BME280;5648;43.628;22.684;2022-08-19T08:50:43;95045.81;;;28.42;76.13
11184;BME280;5648;43.628;22.684;2022-08-19T08:53:13;95047.59;;;28.38;74.03
11184;BME280;5648;43.628;22.684;2022-08-19T08:55:40;95038.50;;;28.34;72.34
11184;BME280;5648;43.628;22.684;2022-08-19T08:58:33;95044.03;;;28.72;73.11
11184;BME280;5648;43.628;22.684;2022-08-19T09:01:10;95036.16;;;28.79;72.32
11184;BME280;5648;43.628;22.684;2022-08-19T09:03:37;95040.03;;;28.69;71.99
11184;BME280;5648;43.628;22.684;2022-08-19T09:16:48;95028.34;;;29.24;68.31
11184;BME280;5648;43.628;22.684;2022-08-19T09:19:16;95024.13;;;29.36;69.84
11184;BME280;5648;43.628;22.684;2022-08-19T09:21:43;95015.03;;;29.61;68.98
11184;BME280;5648;43.628;22.684;2022-08-19T09:24:09;95009.69;;;29.73;68.28
11184;BME280;5648;43.628;22.684;2022-08-19T09:26:34;95007.16;;;29.89;68.12
11184;BME280;5648;43.628;22.684;2022-08-19T09:29:00;95011.59;;;29.94;66.94
11184;BME280;5648;43.628;22.684;2022-08-19T09:31:30;94999.03;;;30.22;65.11
11184;BME280;5648;43.628;22.684;2022-08-19T09:33:58;94998.41;;;30.37;62.96
11184;BME280;5648;43.628;22.684;2022-08-19T09:36:26;94999.09;;;30.34;61.59
11184;BME280;5648;43.628;22.684;2022-08-19T09:38:54;94997.25;;;30.26;60.94
11184;BME280;5648;43.628;22.684;2022-08-19T09:41:22;94995.13;;;30.32;61.17
11184;BME280;5648;43.628;22.684;2022-08-19T09:43:50;94996.16;;;30.39;61.17
11184;BME280;5648;43.628;22.684;2022-08-19T09:46:23;94993.53;;;30.64;61.38
11184;BME280;5648;43.628;22.684;2022-08-19T09:48:49;95002.09;;;30.41;59.21
11184;BME280;5648;43.628;22.684;2022-08-19T09:51:19;95000.38;;;30.70;59.49
11184;BME280;5648;43.628;22.684;2022-08-19T09:53:48;94999.28;;;30.83;58.33
11184;BME280;5648;43.628;22.684;2022-08-19T09:56:19;94997.16;;;31.13;57.30
11184;BME280;5648;43.628;22.684;2022-08-19T09:58:45;94993.13;;;31.11;57.51
11184;BME280;5648;43.628;22.684;2022-08-19T10:01:20;95002.97;;;31.48;55.83
11184;BME280;5648;43.628;22.684;2022-08-19T10:03:50;94994.56;;;31.53;58.07
11184;BME280;5648;43.628;22.684;2022-08-19T10:06:18;94995.22;;;31.63;56.58
11184;BME280;5648;43.628;22.684;2022-08-19T10:08:44;94996.34;;;31.61;58.05
11184;BME280;5648;43.628;22.684;2022-08-19T10:11:10;94982.22;;;31.84;55.08
11184;BME280;5648;43.628;22.684;2022-08-19T10:13:36;94985.50;;;31.89;55.64
11184;BME280;5648;43.628;22.684;2022-08-19T10:16:08;94988.41;;;31.44;55.89
11184;BME280;5648;43.628;22.684;2022-08-19T10:18:34;94982.59;;;31.46;56.87
11184;BME280;5648;43.628;22.684;2022-08-19T10:21:25;94980.41;;;31.51;56.20
11184;BME280;5648;43.628;22.684;2022-08-19T10:23:54;94979.50;;;31.59;56.02
11184;BME280;5648;43.628;22.684;2022-08-19T10:26:24;94988.41;;;31.56;55.56
11184;BME280;5648;43.628;22.684;2022-08-19T10:28:49;94982.78;;;31.77;56.05
11184;BME280;5648;43.628;22.684;2022-08-19T10:31:18;94980.91;;;32.06;55.69
11184;BME280;5648;43.628;22.684;2022-08-19T10:33:45;94979.16;;;32.13;52.64
11184;BME280;5648;43.628;22.684;2022-08-19T10:36:18;94978.47;;;32.16;53.16
11184;BME280;5648;43.628;22.684;2022-08-19T10:38:45;94971.13;;;32.33;55.71
11184;BME280;5648;43.628;22.684;2022-08-19T10:41:15;94965.75;;;32.36;52.47
11184;BME280;5648;43.628;22.684;2022-08-19T10:43:41;94973.50;;;32.62;53.36
11184;BME280;5648;43.628;22.684;2022-08-19T10:46:09;94971.38;;;32.56;50.92
11184;BME280;5648;43.628;22.684;2022-08-19T10:48:35;94972.41;;;32.51;52.76
11184;BME280;5648;43.628;22.684;2022-08-19T10:51:01;94968.72;;;32.59;50.81
11184;BME280;5648;43.628;22.684;2022-08-19T10:53:46;94971.47;;;32.59;52.40
11184;BME280;5648;43.628;22.684;2022-08-19T10:56:12;94974.47;;;32.54;50.67
11184;BME280;5648;43.628;22.684;2022-08-19T10:58:56;94964.72;;;32.85;51.39
11184;BME280;5648;43.628;22.684;2022-08-19T11:01:23;94963.41;;;32.94;49.23
11184;BME280;5648;43.628;22.684;2022-08-19T11:03:49;94956.41;;;32.37;51.23
11184;BME280;5648;43.628;22.684;2022-08-19T11:06:15;94962.09;;;32.60;50.46
11184;BME280;5648;43.628;22.684;2022-08-19T11:08:41;94954.47;;;32.82;49.86
11184;BME280;5648;43.628;22.684;2022-08-19T11:11:11;94952.75;;;32.77;50.04
11184;BME280;5648;43.628;22.684;2022-08-19T11:13:39;94949.97;;;32.89;51.73
11184;BME280;5648;43.628;22.684;2022-08-19T11:16:14;94941.91;;;32.81;50.29
11184;BME280;5648;43.628;22.684;2022-08-19T11:18:46;94947.41;;;33.12;50.51
11184;BME280;5648;43.628;22.684;2022-08-19T11:21:30;94948.28;;;33.00;48.27
11184;BME280;5648;43.628;22.684;2022-08-19T11:24:05;94936.81;;;32.95;48.57
11184;BME280;5648;43.628;22.684;2022-08-19T11:26:32;94943.66;;;32.73;48.64
11184;BME280;5648;43.628;22.684;2022-08-19T11:28:59;94936.63;;;32.88;49.35
11184;BME280;5648;43.628;22.684;2022-08-19T11:31:30;94930.97;;;33.12;49.17
11184;BME280;5648;43.628;22.684;2022-08-19T11:33:58;94928.91;;;33.25;46.30
11184;BME280;5648;43.628;22.684;2022-08-19T11:36:25;94929.84;;;33.32;46.94
11184;BME280;5648;43.628;22.684;2022-08-19T11:38:51;94925.03;;;33.61;46.92
11184;BME280;5648;43.628;22.684;2022-08-19T11:41:19;94922.19;;;33.73;44.82
11184;BME280;5648;43.628;22.684;2022-08-19T11:43:44;94916.56;;;34.05;45.75
11184;BME280;5648;43.628;22.684;2022-08-19T11:46:12;94924.81;;;34.05;43.40
11184;BME280;5648;43.628;22.684;2022-08-19T11:48:39;94916.38;;;34.13;44.79
11184;BME280;5648;43.628;22.684;2022-08-19T11:51:08;94910.09;;;33.93;44.30
11184;BME280;5648;43.628;22.684;2022-08-19T11:53:36;94914.00;;;34.12;44.86
11184;BME280;5648;43.628;22.684;2022-08-19T11:56:03;94903.34;;;34.30;43.54
11184;BME280;5648;43.628;22.684;2022-08-19T11:58:28;94895.91;;;34.30;43.99
11184;BME280;5648;43.628;22.684;2022-08-19T12:00:54;94902.28;;;34.15;42.52
11184;BME280;5648;43.628;22.684;2022-08-19T12:03:20;94902.13;;;34.27;42.94
11184;BME280;5648;43.628;22.684;2022-08-19T12:05:46;94901.34;;;34.27;42.20
11184;BME280;5648;43.628;22.684;2022-08-19T12:08:12;94894.63;;;34.43;43.72
11184;BME280;5648;43.628;22.684;2022-08-19T12:10:39;94883.88;;;34.58;42.50
11184;BME280;5648;43.628;22.684;2022-08-19T12:13:07;94888.47;;;34.50;45.81
11184;BME280;5648;43.628;22.684;2022-08-19T12:15:38;94892.78;;;34.74;42.29
11184;BME280;5648;43.628;22.684;2022-08-19T12:18:06;94888.75;;;34.45;44.07
11184;BME280;5648;43.628;22.684;2022-08-19T12:20:38;94893.88;;;34.46;41.79
11184;BME280;5648;43.628;22.684;2022-08-19T12:23:07;94888.00;;;34.48;43.07
11184;BME280;5648;43.628;22.684;2022-08-19T12:25:33;94889.06;;;34.40;41.19
11184;BME280;5648;43.628;22.684;2022-08-19T12:27:59;94886.13;;;34.75;44.54
11184;BME280;5648;43.628;22.684;2022-08-19T12:30:26;94882.09;;;35.15;44.48
11184;BME280;5648;43.628;22.684;2022-08-19T12:32:52;94879.59;;;34.60;41.89
11184;BME280;5648;43.628;22.684;2022-08-19T12:35:19;94880.22;;;34.73;43.40
11184;BME280;5648;43.628;22.684;2022-08-19T12:37:48;94882.28;;;35.02;42.82
11184;BME280;5648;43.628;22.684;2022-08-19T12:40:15;94879.97;;;35.04;41.45
11184;BME280;5648;43.628;22.684;2022-08-19T12:42:41;94875.47;;;34.93;41.54
11184;BME280;5648;43.628;22.684;2022-08-19T12:45:11;94876.56;;;34.88;40.54
11184;BME280;5648;43.628;22.684;2022-08-19T12:47:37;94880.72;;;35.28;40.89
11184;BME280;5648;43.628;22.684;2022-08-19T12:50:03;94871.28;;;35.29;41.47
11184;BME280;5648;43.628;22.684;2022-08-19T12:52:34;94863.63;;;35.38;41.79
11184;BME280;5648;43.628;22.684;2022-08-19T12:55:04;94866.13;;;35.24;40.25
11184;BME280;5648;43.628;22.684;2022-08-19T12:57:30;94866.22;;;35.04;39.56
11184;BME280;5648;43.628;22.684;2022-08-19T12:59:59;94856.88;;;35.35;42.80
11184;BME280;5648;43.628;22.684;2022-08-19T13:02:24;94858.19;;;35.75;39.85
11184;BME280;5648;43.628;22.684;2022-08-19T13:04:50;94859.63;;;35.92;38.94
11184;BME280;5648;43.628;22.684;2022-08-19T13:07:15;94857.31;;;35.67;39.61
11184;BME280;5648;43.628;22.684;2022-08-19T13:09:41;94854.97;;;34.87;39.89
11184;BME280;5648;43.628;22.684;2022-08-19T13:12:07;94850.13;;;35.33;39.09
11184;BME280;5648;43.628;22.684;2022-08-19T13:14:38;94852.34;;;35.77;37.34
11184;BME280;5648;43.628;22.684;2022-08-19T13:17:03;94846.56;;;35.29;38.25